createdAt,value
2017-05-28T00:00:00.618Z,62.13
2017-05-28T00:01:11.028Z,61.84
2017-05-28T00:02:21.393Z,62.13
2017-05-28T00:03:31.448Z,61.27
2017-05-28T00:04:41.796Z,61.08
2017-05-28T00:05:52.144Z,61.36
2017-05-28T00:07:02.492Z,61.36
2017-05-28T00:08:12.845Z,61.36
2017-05-28T00:09:23.214Z,61.36
2017-05-28T00:10:33.562Z,61.27
2017-05-28T00:11:43.910Z,60.98
2017-05-28T00:12:54.318Z,61.17
2017-05-28T00:14:04.675Z,60.98
2017-05-28T00:15:14.737Z,60.98
2017-05-28T00:16:25.080Z,60.98
2017-05-28T00:17:35.119Z,61.08
2017-05-28T00:18:45.486Z,61.27
2017-05-28T00:19:55.519Z,61.17
2017-05-28T00:21:05.556Z,61.36
2017-05-28T00:22:15.629Z,61.46
2017-05-28T00:23:25.998Z,61.08
2017-05-28T00:24:36.389Z,61.05
2017-05-28T00:25:46.758Z,62.01
2017-05-28T00:26:57.096Z,61.84
2017-05-28T00:28:06.827Z,61.05
2017-05-28T00:29:17.177Z,61.24
2017-05-28T00:30:27.256Z,61.91
2017-05-28T00:31:37.594Z,61.24
2017-05-28T00:32:47.946Z,61.36
2017-05-28T00:33:57.986Z,61.43
2017-05-28T00:35:08.356Z,61.05
2017-05-28T00:36:18.449Z,61.14
2017-05-28T00:37:28.799Z,61.05
2017-05-28T00:38:39.208Z,61.81
2017-05-28T00:39:49.559Z,61.91
2017-05-28T00:40:59.902Z,61.14
2017-05-28T00:42:10.299Z,61.33
2017-05-28T00:43:20.650Z,61.91
2017-05-28T00:44:30.397Z,61.81
2017-05-28T00:45:40.742Z,62.01
2017-05-28T00:46:50.784Z,61.81
2017-05-28T00:48:01.128Z,61.81
2017-05-28T00:49:11.483Z,61.62
2017-05-28T00:50:21.515Z,61.52
2017-05-28T00:51:31.551Z,61.81
2017-05-28T00:52:41.896Z,61.81
2017-05-28T00:53:52.248Z,61.72
2017-05-28T00:55:02.593Z,61.81
2017-05-28T00:56:12.939Z,62.01
2017-05-28T00:57:23.286Z,61.11
2017-05-28T00:58:33.633Z,61.33
2017-05-28T00:59:43.670Z,61.14
2017-05-28T01:00:53.712Z,61.3
2017-05-28T01:02:04.129Z,60.53
2017-05-28T01:03:14.479Z,60.95
2017-05-28T01:04:24.522Z,61.43
2017-05-28T01:05:34.323Z,61.4
2017-05-28T01:06:44.665Z,61.21
2017-05-28T01:07:54.715Z,61.3
2017-05-28T01:09:04.752Z,61.11
2017-05-28T01:10:15.090Z,61.02
2017-05-28T01:11:25.512Z,61.11
2017-05-28T01:12:35.874Z,60.82
2017-05-28T01:13:46.219Z,60.82
2017-05-28T01:14:56.569Z,61.21
2017-05-28T01:16:06.922Z,61.33
2017-05-28T01:17:17.278Z,61.88
2017-05-28T01:18:27.637Z,61.78
2017-05-28T01:19:37.682Z,61.78
2017-05-28T01:20:47.712Z,61.4
2017-05-28T01:21:58.052Z,61.59
2017-05-28T01:23:08.441Z,61.59
2017-05-28T01:24:18.801Z,61.59
2017-05-28T01:25:29.183Z,61.69
2017-05-28T01:26:39.535Z,61.59
2017-05-28T01:27:49.881Z,61.59
2017-05-28T01:29:00.248Z,61.49
2017-05-28T01:30:10.592Z,61.59
2017-05-28T01:31:20.939Z,61.69
2017-05-28T01:32:31.308Z,61.69
2017-05-28T01:33:41.360Z,61.59
2017-05-28T01:34:51.467Z,61.78
2017-05-28T01:36:01.520Z,61.88
2017-05-28T01:37:11.882Z,61.88
2017-05-28T01:38:22.242Z,61.88
2017-05-28T01:39:32.581Z,61.78
2017-05-28T01:40:42.616Z,61.85
2017-05-28T01:41:52.650Z,61.85
2017-05-28T01:43:02.999Z,61.94
2017-05-28T01:44:13.034Z,62.04
2017-05-28T01:45:23.397Z,61.08
2017-05-28T01:46:33.799Z,60.89
2017-05-28T01:47:44.163Z,61.27
2017-05-28T01:48:54.502Z,61.27
2017-05-28T01:50:04.234Z,61.18
2017-05-28T01:51:14.586Z,61.18
2017-05-28T01:52:24.673Z,61.08
2017-05-28T01:53:34.714Z,60.99
2017-05-28T01:54:44.772Z,61.08
2017-05-28T01:55:54.810Z,60.99
2017-05-28T01:57:05.152Z,60.99
2017-05-28T01:58:14.931Z,61.08
2017-05-28T01:59:25.285Z,60.99
2017-05-28T02:00:35.625Z,61.08
2017-05-28T02:01:45.968Z,60.79
2017-05-28T02:02:56.325Z,60.7
2017-05-28T02:04:06.404Z,61.18
2017-05-28T02:05:16.772Z,60.99
2017-05-28T02:06:27.121Z,60.89
2017-05-28T02:07:37.147Z,60.99
2017-05-28T02:08:47.171Z,61.08
2017-05-28T02:09:57.590Z,61.08
2017-05-28T02:11:07.934Z,60.89
2017-05-28T02:12:18.295Z,61.08
2017-05-28T02:13:28.671Z,61.08
2017-05-28T02:14:38.704Z,61.08
2017-05-28T02:15:49.040Z,60.99
2017-05-28T02:16:59.382Z,60.7
2017-05-28T02:18:09.729Z,60.99
2017-05-28T02:19:20.089Z,60.7
2017-05-28T02:20:30.460Z,60.5
2017-05-28T02:21:40.852Z,61.08
2017-05-28T02:22:50.574Z,60.7
2017-05-28T02:24:00.942Z,60.6
2017-05-28T02:25:11.313Z,60.7
2017-05-28T02:26:21.352Z,60.89
2017-05-28T02:27:31.454Z,60.89
2017-05-28T02:28:41.164Z,60.96
2017-05-28T02:29:51.202Z,61.05
2017-05-28T02:31:01.563Z,60.96
2017-05-28T02:32:11.913Z,60.96
2017-05-28T02:33:22.314Z,60.96
2017-05-28T02:34:32.738Z,60.96
2017-05-28T02:35:42.763Z,60.86
2017-05-28T02:36:53.151Z,60.96
2017-05-28T02:38:02.883Z,61.05
2017-05-28T02:39:13.277Z,60.96
2017-05-28T02:40:23.309Z,60.86
2017-05-28T02:41:33.345Z,60.86
2017-05-28T02:42:43.074Z,60.96
2017-05-28T02:43:53.161Z,60.96
2017-05-28T02:45:03.576Z,61.05
2017-05-28T02:46:13.615Z,61.05
2017-05-28T02:47:24.040Z,61.05
2017-05-28T02:48:34.377Z,60.76
2017-05-28T02:49:44.434Z,61.05
2017-05-28T02:50:54.891Z,61.02
2017-05-28T02:52:04.930Z,60.83
2017-05-28T02:53:14.962Z,60.93
2017-05-28T02:54:25.338Z,60.83
2017-05-28T02:55:35.045Z,61.02
2017-05-28T02:56:45.441Z,61.02
2017-05-28T02:57:55.469Z,60.93
2017-05-28T02:59:05.817Z,60.93
2017-05-28T03:00:16.183Z,60.64
2017-05-28T03:01:26.527Z,60.73
2017-05-28T03:33:27.650Z,58.73
2017-05-28T03:34:37.990Z,59.5
2017-05-28T03:35:48.343Z,60.17
2017-05-28T03:36:58.697Z,60.61
2017-05-28T03:38:09.059Z,60.81
2017-05-28T03:39:19.684Z,61.32
2017-05-28T03:40:29.706Z,61.41
2017-05-28T03:41:40.070Z,61.89
2017-05-28T03:42:50.421Z,61.72
2017-05-28T03:44:00.758Z,61.44
2017-05-28T03:45:11.096Z,61.54
2017-05-28T03:46:20.818Z,61.76
2017-05-28T03:47:31.164Z,61.85
2017-05-28T03:48:41.193Z,61.66
2017-05-28T03:49:51.541Z,61.22
2017-05-28T03:51:01.904Z,61.51
2017-05-28T03:52:12.249Z,61.12
2017-05-28T03:53:22.599Z,61.41
2017-05-28T03:54:32.953Z,60.86
2017-05-28T03:55:43.316Z,61.25
2017-05-28T03:56:53.393Z,60.86
2017-05-28T03:58:03.753Z,60.96
2017-05-28T03:59:14.092Z,60.51
2017-05-28T04:00:24.433Z,60.7
2017-05-28T04:01:34.779Z,60.8
2017-05-28T04:02:45.023Z,60.51
2017-05-28T04:03:55.383Z,60.7
2017-05-28T04:05:05.749Z,60.73
2017-05-28T04:06:16.134Z,60.73
2017-05-28T04:07:26.479Z,60.35
2017-05-28T04:08:36.571Z,60.35
2017-05-28T04:09:46.922Z,60.35
2017-05-28T04:10:56.645Z,60.25
2017-05-28T04:12:07.010Z,60.25
2017-05-28T04:13:17.363Z,60.38
2017-05-28T04:14:27.766Z,60.47
2017-05-28T04:15:38.124Z,60.47
2017-05-28T04:16:48.476Z,60.47
2017-05-28T04:17:58.835Z,60.09
2017-05-28T04:19:09.196Z,58.97
2017-05-28T04:20:19.283Z,56.66
2017-05-28T04:21:29.622Z,55.04
2017-05-28T04:22:39.971Z,53.7
2017-05-28T04:23:50.316Z,53.37
2017-05-28T04:25:00.359Z,52.97
2017-05-28T04:26:10.762Z,52.82
2017-05-28T04:27:21.113Z,52.85
2017-05-28T04:28:31.465Z,52.71
2017-05-28T04:29:41.831Z,52.83
2017-05-28T04:30:51.864Z,53.05
2017-05-28T04:32:02.260Z,52.88
2017-05-28T04:33:12.613Z,52.81
2017-05-28T04:34:22.662Z,52.76
2017-05-28T04:35:33.026Z,53.25
2017-05-28T04:36:43.368Z,53.18
2017-05-28T04:37:53.777Z,53.2
2017-05-28T04:39:04.139Z,53.4
2017-05-28T04:40:14.495Z,53.14
2017-05-28T04:41:24.836Z,53.06
2017-05-28T04:42:35.191Z,53.26
2017-05-28T04:43:44.929Z,52.99
2017-05-28T04:44:54.656Z,53.19
2017-05-28T04:46:05.035Z,53.21
2017-05-28T04:47:15.380Z,53.11
2017-05-28T04:48:25.746Z,53.02
2017-05-28T04:49:36.102Z,53.05
2017-05-28T04:50:46.470Z,53.14
2017-05-28T04:51:56.835Z,53.56
2017-05-28T04:53:06.581Z,53.27
2017-05-28T04:54:16.938Z,52.87
2017-05-28T04:55:27.347Z,52.87
2017-05-28T04:56:37.396Z,53.27
2017-05-28T04:57:47.753Z,53.29
2017-05-28T04:58:58.092Z,52.9
2017-05-28T05:00:08.448Z,53.19
2017-05-28T05:01:18.850Z,53.49
2017-05-28T05:02:28.935Z,52.9
2017-05-28T05:03:38.985Z,52.93
2017-05-28T05:04:49.344Z,53.32
2017-05-28T05:05:59.697Z,53.32
2017-05-28T05:07:10.059Z,52.93
2017-05-28T05:08:20.424Z,53.34
2017-05-28T05:09:30.772Z,53.54
2017-05-28T05:10:41.133Z,53.34
2017-05-28T05:11:51.498Z,53.64
2017-05-28T05:13:01.861Z,53.64
2017-05-28T05:14:12.231Z,54.32
2017-05-28T05:15:22.579Z,53.64
2017-05-28T05:16:32.942Z,53.93
2017-05-28T05:17:43.356Z,53.64
2017-05-28T05:18:53.719Z,53.74
2017-05-28T05:20:04.095Z,53.83
2017-05-28T05:21:14.432Z,54.03
2017-05-28T05:22:24.787Z,54.03
2017-05-28T05:23:34.817Z,54.15
2017-05-28T05:24:44.904Z,54.05
2017-05-28T05:25:55.253Z,53.86
2017-05-28T05:27:05.614Z,53.76
2017-05-28T05:28:15.960Z,53.98
2017-05-28T05:29:26.015Z,53.76
2017-05-28T05:30:36.409Z,53.96
2017-05-28T05:31:46.809Z,53.96
2017-05-28T05:32:56.851Z,54.05
2017-05-28T05:34:06.580Z,53.76
2017-05-28T05:35:16.921Z,54.05
2017-05-28T05:36:27.342Z,53.96
2017-05-28T05:37:37.705Z,54.05
2017-05-28T05:38:48.095Z,54.03
2017-05-28T05:39:58.160Z,53.93
2017-05-28T05:41:08.529Z,54.03
2017-05-28T05:42:18.923Z,54.22
2017-05-28T05:43:28.976Z,54.32
2017-05-28T05:44:39.406Z,54.52
2017-05-28T05:45:49.782Z,54.3
2017-05-28T05:46:59.843Z,54.69
2017-05-28T05:48:10.250Z,54.69
2017-05-28T05:49:20.598Z,54.88
2017-05-28T05:50:30.664Z,54.95
2017-05-28T05:51:41.024Z,55.05
2017-05-28T05:52:51.389Z,55.63
2017-05-28T05:54:01.803Z,55.73
2017-05-28T05:55:12.148Z,55.61
2017-05-28T05:56:22.516Z,56.07
2017-05-28T05:57:32.866Z,55.97
2017-05-28T05:58:43.299Z,56.04
2017-05-28T05:59:53.399Z,56.43
2017-05-28T06:01:03.775Z,56.52
2017-05-28T06:02:13.815Z,56.52
2017-05-28T06:03:24.165Z,56.3
2017-05-28T06:04:34.518Z,56.5
2017-05-28T06:05:44.891Z,56.6
2017-05-28T06:06:54.933Z,56.86
2017-05-28T06:08:04.972Z,56.86
2017-05-28T06:09:15.335Z,56.96
2017-05-28T06:10:25.694Z,56.86
2017-05-28T06:11:35.783Z,56.96
2017-05-28T06:12:45.839Z,56.93
2017-05-28T06:13:55.900Z,56.84
2017-05-28T06:15:06.256Z,57.81
2017-05-28T06:16:16.615Z,59.21
2017-05-28T06:17:27.021Z,59.74
2017-05-28T06:18:37.370Z,59.8
2017-05-28T06:19:47.419Z,59.77
2017-05-28T06:20:57.764Z,58.7
2017-05-28T06:22:07.812Z,57.76
2017-05-28T06:23:17.859Z,57.28
2017-05-28T06:24:27.935Z,57.21
2017-05-28T06:25:38.283Z,57.11
2017-05-28T06:26:48.654Z,57.01
2017-05-28T06:27:59.005Z,56.92
2017-05-28T06:29:09.082Z,57.01
2017-05-28T06:30:19.126Z,57.21
2017-05-28T06:31:28.858Z,57.11
2017-05-28T06:32:38.898Z,56.72
2017-05-28T06:33:48.624Z,57.21
2017-05-28T06:34:58.709Z,57.69
2017-05-28T06:36:09.062Z,57.76
2017-05-28T06:37:19.101Z,57.37
2017-05-28T06:38:28.824Z,57.67
2017-05-28T06:39:39.167Z,57.96
2017-05-28T06:40:49.567Z,58.05
2017-05-28T06:41:59.922Z,58.03
2017-05-28T06:43:10.286Z,58.51
2017-05-28T06:44:20.655Z,58.03
2017-05-28T06:45:30.712Z,58.41
2017-05-28T06:46:40.489Z,58.9
2017-05-28T06:47:50.855Z,58.9
2017-05-28T06:49:01.219Z,59.26
2017-05-28T06:50:11.574Z,59.48
2017-05-28T06:51:21.921Z,59.36
2017-05-28T06:52:31.699Z,59.26
2017-05-28T06:53:42.058Z,59.91
2017-05-28T06:54:52.411Z,59.61
2017-05-28T06:56:02.453Z,59.81
2017-05-28T06:57:12.508Z,59.71
2017-05-28T06:58:21.987Z,59.81
2017-05-28T06:59:32.026Z,59.42
2017-05-28T07:00:42.090Z,59.71
2017-05-28T07:01:51.838Z,59.61
2017-05-28T07:03:01.878Z,59.78
2017-05-28T07:04:12.286Z,59.59
2017-05-28T07:05:22.649Z,60.07
2017-05-28T07:06:33.009Z,60.17
2017-05-28T07:07:43.363Z,60.33
2017-05-28T07:08:53.703Z,60.43
2017-05-28T07:10:03.789Z,60.43
2017-05-28T07:11:14.138Z,60.62
2017-05-28T07:12:24.503Z,60.3
2017-05-28T07:13:34.850Z,60.33
2017-05-28T07:14:44.901Z,60.3
2017-05-28T07:15:55.274Z,59.75
2017-05-28T07:17:05.305Z,59.94
2017-05-28T07:18:15.652Z,59.84
2017-05-28T07:19:25.695Z,59.94
2017-05-28T07:20:36.041Z,59.84
2017-05-28T07:21:45.784Z,59.75
2017-05-28T07:22:56.138Z,59.94
2017-05-28T07:24:06.192Z,60.04
2017-05-28T07:25:16.536Z,59.66
2017-05-28T07:26:26.896Z,59.66
2017-05-28T07:27:37.303Z,59.39
2017-05-28T07:28:47.358Z,59.97
2017-05-28T07:29:57.720Z,60.04
2017-05-28T07:31:08.077Z,60.04
2017-05-28T07:32:18.481Z,59.84
2017-05-28T07:33:28.933Z,59.84
2017-05-28T07:34:39.302Z,60.04
2017-05-28T07:35:49.654Z,60.14
2017-05-28T07:36:59.680Z,60.04
2017-05-28T07:38:10.033Z,59.69
2017-05-28T07:39:20.131Z,59.49
2017-05-28T07:40:30.195Z,59.49
2017-05-28T07:41:40.566Z,59.69
2017-05-28T07:42:50.621Z,59.69
2017-05-28T07:44:00.979Z,59.69
2017-05-28T07:45:11.349Z,59.59
2017-05-28T07:46:21.395Z,59.69
2017-05-28T07:47:31.744Z,59.69
2017-05-28T07:48:42.102Z,59.69
2017-05-28T07:49:51.840Z,59.81
2017-05-28T07:51:01.929Z,59.61
2017-05-28T07:52:12.283Z,59.71
2017-05-28T07:53:22.327Z,59.81
2017-05-28T07:54:32.688Z,59.81
2017-05-28T07:55:43.101Z,59.52
2017-05-28T07:56:53.228Z,59.61
2017-05-28T07:58:03.661Z,59.71
2017-05-28T07:59:14.028Z,59.71
2017-05-28T08:00:24.421Z,59.61
2017-05-28T08:01:34.781Z,59.61
2017-05-28T08:02:45.160Z,59.81
2017-05-28T08:03:55.525Z,59.61
2017-05-28T08:05:05.596Z,59.84
2017-05-28T08:06:15.966Z,59.84
2017-05-28T08:07:26.331Z,59.64
2017-05-28T08:08:36.374Z,59.74
2017-05-28T08:09:46.749Z,59.84
2017-05-28T08:10:57.117Z,59.74
2017-05-28T08:12:07.712Z,59.84
2017-05-28T08:13:18.076Z,59.84
2017-05-28T08:14:28.440Z,59.84
2017-05-28T08:15:38.488Z,59.74
2017-05-28T08:16:48.842Z,59.74
2017-05-28T08:17:59.204Z,59.77
2017-05-28T08:19:09.567Z,59.77
2017-05-28T08:20:19.932Z,59.67
2017-05-28T08:21:30.302Z,59.97
2017-05-28T08:22:40.654Z,59.87
2017-05-28T08:23:50.708Z,59.77
2017-05-28T08:25:01.087Z,60
2017-05-28T08:26:11.483Z,59.87
2017-05-28T08:27:21.540Z,59.8
2017-05-28T08:28:31.898Z,59.77
2017-05-28T08:29:41.935Z,59.87
2017-05-28T08:30:52.315Z,59.7
2017-05-28T08:32:02.708Z,59.8
2017-05-28T08:33:13.091Z,59.7
2017-05-28T08:34:23.445Z,59.7
2017-05-28T08:35:33.818Z,59.51
2017-05-28T08:36:44.166Z,59.61
2017-05-28T08:37:54.230Z,59.61
2017-05-28T08:39:04.272Z,59.7
2017-05-28T08:40:14.645Z,60
2017-05-28T08:41:25.008Z,59.83
2017-05-28T08:42:35.376Z,59.74
2017-05-28T08:43:45.812Z,59.64
2017-05-28T08:44:56.173Z,59.74
2017-05-28T08:46:06.522Z,59.74
2017-05-28T08:47:16.886Z,59.74
2017-05-28T08:48:26.944Z,59.74
2017-05-28T08:49:37.319Z,59.92
2017-05-28T08:50:47.677Z,59.92
2017-05-28T08:51:57.422Z,59.83
2017-05-28T08:53:07.466Z,59.74
2017-05-28T08:54:17.831Z,59.74
2017-05-28T08:55:27.915Z,59.86
2017-05-28T08:56:38.480Z,59.76
2017-05-28T08:57:48.846Z,59.76
2017-05-28T08:58:58.579Z,59.76
2017-05-28T09:00:08.305Z,59.86
2017-05-28T09:01:18.403Z,59.76
2017-05-28T09:02:28.794Z,59.76
2017-05-28T09:03:39.195Z,59.76
2017-05-28T09:04:49.585Z,59.67
2017-05-28T09:05:59.934Z,59.76
2017-05-28T09:07:10.044Z,59.57
2017-05-28T09:08:20.410Z,59.76
2017-05-28T09:09:30.790Z,59.76
2017-05-28T09:10:41.167Z,59.86
2017-05-28T09:11:51.534Z,59.76
2017-05-28T09:13:01.630Z,59.76
2017-05-28T09:14:11.680Z,59.76
2017-05-28T09:15:21.719Z,59.76
2017-05-28T09:16:32.087Z,59.86
2017-05-28T09:17:42.137Z,59.95
2017-05-28T09:18:52.511Z,59.76
2017-05-28T09:20:02.857Z,59.76
2017-05-28T09:21:12.907Z,59.76
2017-05-28T09:22:22.955Z,59.57
2017-05-28T09:23:32.999Z,59.86
2017-05-28T09:24:43.436Z,59.79
2017-05-28T09:25:53.797Z,60.08
2017-05-28T09:27:04.153Z,60.18
2017-05-28T09:28:14.504Z,59.89
2017-05-28T09:29:24.546Z,59.89
2017-05-28T09:30:34.615Z,59.89
2017-05-28T09:31:44.716Z,59.79
2017-05-28T09:32:54.790Z,59.79
2017-05-28T09:34:05.151Z,59.79
2017-05-28T09:35:15.196Z,59.79
2017-05-28T09:36:25.619Z,59.99
2017-05-28T09:37:35.962Z,60.08
2017-05-28T09:38:46.316Z,59.99
2017-05-28T09:39:56.673Z,59.69
2017-05-28T09:41:07.036Z,59.5
2017-05-28T09:42:17.187Z,59.79
2017-05-28T09:43:27.227Z,60.08
2017-05-28T09:44:37.259Z,59.69
2017-05-28T09:45:47.609Z,59.33
2017-05-28T09:46:57.965Z,59.63
2017-05-28T09:48:08.013Z,59.43
2017-05-28T09:49:18.391Z,59.27
2017-05-28T09:50:28.739Z,59.56
2017-05-28T09:51:39.182Z,59.46
2017-05-28T09:52:49.550Z,59.43
2017-05-28T09:53:59.926Z,59.27
2017-05-28T09:55:10.285Z,59.56
2017-05-28T09:56:20.642Z,59.27
2017-05-28T09:57:30.709Z,59.07
2017-05-28T09:58:41.096Z,58.97
2017-05-28T09:59:51.456Z,59.43
2017-05-28T10:01:01.823Z,59.72
2017-05-28T10:02:11.874Z,59.72
2017-05-28T10:03:21.919Z,59.72
2017-05-28T10:04:31.978Z,59.72
2017-05-28T10:05:42.345Z,59.07
2017-05-28T10:06:52.419Z,59.56
2017-05-28T10:08:02.787Z,59.56
2017-05-28T10:09:13.181Z,59.66
2017-05-28T10:10:22.909Z,59.27
2017-05-28T10:11:33.299Z,59.27
2017-05-28T10:12:43.636Z,59.27
2017-05-28T10:13:54.007Z,59.66
2017-05-28T10:15:04.365Z,59.66
2017-05-28T10:16:14.427Z,59.56
2017-05-28T10:17:24.179Z,59.56
2017-05-28T10:18:34.530Z,59.56
2017-05-28T10:19:44.892Z,59.56
2017-05-28T10:20:55.256Z,59.46
2017-05-28T10:22:05.620Z,59.27
2017-05-28T10:23:16.014Z,59.3
2017-05-28T10:24:26.380Z,59.69
2017-05-28T10:25:36.761Z,59.49
2017-05-28T10:26:47.152Z,59.42
2017-05-28T10:27:57.513Z,59.42
2017-05-28T10:29:07.927Z,59.42
2017-05-28T10:30:18.307Z,59.39
2017-05-28T10:31:28.661Z,59.42
2017-05-28T10:32:39.011Z,59.49
2017-05-28T10:33:49.382Z,59.52
2017-05-28T10:34:59.433Z,59.49
2017-05-28T10:36:09.830Z,59.49
2017-05-28T10:37:20.173Z,59.49
2017-05-28T10:38:30.237Z,59.52
2017-05-28T10:39:40.587Z,59.33
2017-05-28T10:40:51.259Z,59.52
2017-05-28T10:42:01.616Z,59.33
2017-05-28T10:43:11.997Z,59.72
2017-05-28T10:44:22.373Z,59.33
2017-05-28T10:45:32.422Z,59.42
2017-05-28T10:46:42.797Z,59.42
2017-05-28T10:47:53.158Z,59.42
2017-05-28T10:49:03.206Z,59.42
2017-05-28T10:50:13.269Z,59.33
2017-05-28T10:51:23.641Z,59.45
2017-05-28T10:52:34.053Z,59.26
2017-05-28T10:53:44.407Z,58.87
2017-05-28T10:54:54.477Z,58.87
2017-05-28T10:56:04.530Z,58.97
2017-05-28T10:57:14.568Z,59.09
2017-05-28T10:58:24.925Z,59.19
2017-05-28T10:59:35.277Z,59.19
2017-05-28T11:00:45.337Z,59.77
2017-05-28T11:01:55.402Z,58.89
2017-05-28T11:03:05.760Z,58.89
2017-05-28T11:04:16.136Z,59.58
2017-05-28T11:05:26.187Z,59.58
2017-05-28T11:06:36.231Z,59.67
2017-05-28T11:07:46.269Z,59.58
2017-05-28T11:08:56.649Z,59.67
2017-05-28T11:10:07.023Z,59.58
2017-05-28T11:11:17.081Z,59.58
2017-05-28T11:12:27.449Z,59.58
2017-05-28T11:13:37.497Z,59.67
2017-05-28T11:14:47.534Z,59.48
2017-05-28T11:15:57.326Z,59.48
2017-05-28T11:17:07.683Z,59.58
2017-05-28T11:18:18.056Z,59.48
2017-05-28T11:19:28.439Z,59.77
2017-05-28T11:20:38.804Z,59.38
2017-05-28T11:21:48.582Z,59.48
2017-05-28T11:22:58.941Z,59.67
2017-05-28T11:24:08.674Z,59.67
2017-05-28T11:25:19.029Z,59.58
2017-05-28T11:26:29.390Z,59.58
2017-05-28T11:27:39.800Z,59.58
2017-05-28T11:28:49.853Z,59.38
2017-05-28T11:30:00.204Z,59.19
2017-05-28T11:31:10.579Z,58.99
2017-05-28T11:32:20.956Z,59.12
2017-05-28T11:33:30.728Z,58.92
2017-05-28T11:34:40.780Z,58.83
2017-05-28T11:35:51.134Z,59.38
2017-05-28T11:37:01.182Z,59.67
2017-05-28T11:38:11.241Z,59.22
2017-05-28T11:39:21.661Z,59.22
2017-05-28T11:40:32.038Z,58.99
2017-05-28T11:41:42.076Z,59.02
2017-05-28T11:42:52.472Z,59.12
2017-05-28T11:44:02.838Z,59.51
2017-05-28T11:45:13.251Z,59.12
2017-05-28T11:46:23.327Z,59.22
2017-05-28T11:47:33.686Z,59.12
2017-05-28T11:48:44.069Z,58.73
2017-05-28T11:49:54.427Z,59.31
2017-05-28T11:51:04.814Z,59.25
2017-05-28T11:52:15.177Z,59.25
2017-05-28T11:53:25.542Z,59.44
2017-05-28T11:54:35.911Z,58.76
2017-05-28T11:55:46.303Z,59.05
2017-05-28T11:56:56.725Z,58.86
2017-05-28T11:58:07.082Z,59.83
2017-05-28T11:59:17.458Z,59.54
2017-05-28T12:00:27.200Z,59.44
2017-05-28T12:01:37.573Z,59.41
2017-05-28T12:02:48.008Z,59.41
2017-05-28T12:03:58.052Z,59.64
2017-05-28T12:05:08.413Z,59.51
2017-05-28T12:06:18.480Z,59.8
2017-05-28T12:07:28.861Z,59.61
2017-05-28T12:08:39.287Z,59.61
2017-05-28T12:09:49.662Z,59.02
2017-05-28T12:10:59.708Z,59.61
2017-05-28T12:12:10.082Z,59.31
2017-05-28T12:13:20.433Z,58.92
2017-05-28T12:14:30.794Z,58.95
2017-05-28T12:15:41.160Z,58.95
2017-05-28T12:16:51.515Z,59.25
2017-05-28T12:18:01.877Z,59.05
2017-05-28T12:19:12.233Z,59.25
2017-05-28T12:20:22.305Z,59.34
2017-05-28T12:21:32.366Z,59.61
2017-05-28T12:22:42.723Z,59.51
2017-05-28T12:23:53.096Z,59.8
2017-05-28T12:25:02.820Z,59.61
2017-05-28T12:26:12.927Z,59.25
2017-05-28T12:27:23.307Z,59.05
2017-05-28T12:28:33.673Z,58.86
2017-05-28T12:29:44.041Z,58.95
2017-05-28T12:30:53.771Z,58.95
2017-05-28T12:32:03.880Z,58.86
2017-05-28T12:33:14.235Z,59.25
2017-05-28T12:34:24.302Z,59.05
2017-05-28T12:35:34.676Z,59.64
2017-05-28T12:36:45.054Z,59.74
2017-05-28T12:37:55.182Z,59.74
2017-05-28T12:39:05.548Z,59.74
2017-05-28T12:40:15.920Z,59.44
2017-05-28T12:41:26.288Z,59.74
2017-05-28T12:42:36.030Z,59.05
2017-05-28T12:43:46.460Z,59.25
2017-05-28T12:44:56.817Z,58.95
2017-05-28T12:46:06.866Z,58.86
2017-05-28T12:47:16.592Z,59.25
2017-05-28T12:48:26.943Z,58.89
2017-05-28T12:49:37.374Z,59.18
2017-05-28T12:50:47.429Z,59.08
2017-05-28T12:51:57.812Z,59.08
2017-05-28T12:53:08.173Z,59.86
2017-05-28T12:54:18.547Z,59.77
2017-05-28T12:55:28.959Z,59.74
2017-05-28T12:56:39.018Z,59.54
2017-05-28T12:57:49.071Z,59.34
2017-05-28T12:58:59.660Z,59.54
2017-05-28T13:00:10.005Z,59.64
2017-05-28T13:01:20.448Z,59.64
2017-05-28T13:02:30.817Z,59.64
2017-05-28T13:03:41.191Z,59.8
2017-05-28T13:04:51.245Z,59.7
2017-05-28T13:06:01.623Z,59.7
2017-05-28T13:07:12.051Z,59.51
2017-05-28T13:08:22.398Z,59.51
2017-05-28T13:09:32.817Z,59.51
2017-05-28T13:10:43.202Z,59.61
2017-05-28T13:11:53.560Z,59.51
2017-05-28T13:13:03.607Z,59.51
2017-05-28T13:14:13.354Z,59.51
2017-05-28T13:15:22.781Z,59.31
2017-05-28T13:16:32.855Z,59.61
2017-05-28T13:17:43.234Z,59.54
2017-05-28T13:18:53.602Z,59.83
2017-05-28T13:20:03.646Z,59.74
2017-05-28T13:21:13.712Z,59.64
2017-05-28T13:22:24.072Z,59.44
2017-05-28T13:23:34.127Z,59.64
2017-05-28T13:24:44.552Z,59.74
2017-05-28T13:25:54.910Z,59.64
2017-05-28T13:27:05.292Z,59.54
2017-05-28T13:28:15.340Z,59.34
2017-05-28T13:29:25.760Z,59.34
2017-05-28T13:30:36.116Z,59.54
2017-05-28T13:31:45.848Z,59.44
2017-05-28T13:32:56.217Z,59.54
2017-05-28T13:34:06.598Z,59.34
2017-05-28T13:35:16.957Z,59.93
2017-05-28T13:36:26.995Z,59.54
2017-05-28T13:37:37.344Z,59.83
2017-05-28T13:38:47.713Z,59.54
2017-05-28T13:39:58.095Z,59.34
2017-05-28T13:41:08.466Z,59.44
2017-05-28T13:42:18.562Z,59.54
2017-05-28T13:43:28.918Z,59.44
2017-05-28T13:44:39.283Z,59.34
2017-05-28T13:45:49.871Z,59.44
2017-05-28T13:46:59.930Z,59.54
2017-05-28T13:48:10.334Z,59.64
2017-05-28T13:49:20.699Z,59.64
2017-05-28T13:50:30.757Z,59.64
2017-05-28T13:51:41.117Z,59.64
2017-05-28T13:52:51.169Z,59.64
2017-05-28T13:54:01.279Z,59.83
2017-05-28T13:55:11.343Z,59.83
2017-05-28T13:56:21.710Z,59.64
2017-05-28T13:57:32.079Z,59.74
2017-05-28T13:58:42.461Z,59.54
2017-05-28T13:59:52.254Z,59.64
2017-05-28T14:01:02.618Z,59.64
2017-05-28T14:02:12.681Z,59.64
2017-05-28T14:03:22.730Z,59.54
2017-05-28T14:04:32.767Z,59.64
2017-05-28T14:05:42.590Z,59.83
2017-05-28T14:06:52.952Z,59.15
2017-05-28T14:08:03.395Z,59.83
2017-05-28T14:09:13.784Z,59.8
2017-05-28T14:10:24.160Z,59.61
2017-05-28T14:11:34.581Z,59.7
2017-05-28T14:12:44.950Z,59.8
2017-05-28T14:13:55.317Z,59.61
2017-05-28T14:15:05.674Z,59.8
2017-05-28T14:16:16.045Z,59.61
2017-05-28T14:17:26.458Z,59.61
2017-05-28T14:18:36.835Z,59.8
2017-05-28T14:19:47.206Z,60.1
2017-05-28T14:20:57.564Z,59.8
2017-05-28T14:22:07.928Z,59.9
2017-05-28T14:23:18.033Z,60
2017-05-28T14:24:28.082Z,60
2017-05-28T14:25:38.445Z,60.1
2017-05-28T14:26:48.507Z,59.9
2017-05-28T14:27:58.564Z,60.29
2017-05-28T14:29:08.655Z,59.9
2017-05-28T14:30:19.025Z,60
2017-05-28T14:31:29.400Z,60
2017-05-28T14:32:39.775Z,59.9
2017-05-28T14:33:50.139Z,60
2017-05-28T14:34:59.624Z,60.19
2017-05-28T14:36:09.050Z,60.19
2017-05-28T14:37:19.113Z,60
2017-05-28T14:38:29.772Z,59.97
2017-05-28T14:39:40.154Z,60
2017-05-28T14:40:50.197Z,60.1
2017-05-28T14:42:00.555Z,60.1
2017-05-28T14:43:10.942Z,60.39
2017-05-28T14:44:21.308Z,59.97
2017-05-28T14:45:31.737Z,59.97
2017-05-28T14:46:41.876Z,59.87
2017-05-28T14:47:51.622Z,60.06
2017-05-28T14:49:01.671Z,60.06
2017-05-28T14:50:12.042Z,59.97
2017-05-28T14:51:22.411Z,59.97
2017-05-28T14:52:32.846Z,60.06
2017-05-28T14:53:43.228Z,59.97
2017-05-28T14:54:53.604Z,59.97
2017-05-28T14:56:03.987Z,59.97
2017-05-28T14:57:14.029Z,59.97
2017-05-28T14:58:24.130Z,59.97
2017-05-28T14:59:34.496Z,59.97
2017-05-28T15:00:44.868Z,60.06
2017-05-28T15:01:54.931Z,60.06
2017-05-28T15:03:05.309Z,59.97
2017-05-28T15:04:15.750Z,59.97
2017-05-28T15:05:26.129Z,59.97
2017-05-28T15:06:36.495Z,60.06
2017-05-28T15:07:46.555Z,59.87
2017-05-28T15:08:57.116Z,59.97
2017-05-28T15:10:07.463Z,60.06
2017-05-28T15:11:17.520Z,60.16
2017-05-28T15:12:27.889Z,59.87
2017-05-28T15:13:37.937Z,59.94
2017-05-28T15:14:48.352Z,60.06
2017-05-28T15:15:58.718Z,59.94
2017-05-28T15:17:08.784Z,60.03
2017-05-28T15:18:19.169Z,60.33
2017-05-28T15:19:29.229Z,60.03
2017-05-28T15:20:39.599Z,60.03
2017-05-28T15:21:49.645Z,60.42
2017-05-28T15:22:59.406Z,60.13
2017-05-28T15:24:09.458Z,60.42
2017-05-28T15:25:19.868Z,60.23
2017-05-28T15:26:30.220Z,60.03
2017-05-28T15:27:40.646Z,59.84
2017-05-28T15:28:51.013Z,59.94
2017-05-28T15:30:01.380Z,60.13
2017-05-28T15:31:11.441Z,60.16
2017-05-28T15:32:21.511Z,60.06
2017-05-28T15:33:31.729Z,60.42
2017-05-28T15:34:42.100Z,60.42
2017-05-28T15:35:52.477Z,60.42
2017-05-28T15:37:02.527Z,60.13
2017-05-28T15:38:12.891Z,60.33